createdAt,value
2023-02-05T00:03:14.508Z,-5.38
2023-02-05T00:08:37.215Z,-5.57
2023-02-05T00:14:01.486Z,-5.58
2023-02-05T00:19:23.922Z,-5.63
2023-02-05T00:24:46.268Z,-5.65
2023-02-05T00:30:08.618Z,-5.77
2023-02-05T00:35:31.040Z,-5.78
2023-02-05T00:40:53.821Z,-5.79
2023-02-05T00:46:16.552Z,-5.85
2023-02-05T00:51:39.740Z,-5.88
2023-02-05T00:57:01.974Z,-5.87
2023-02-05T01:02:25.501Z,-5.96
2023-02-05T01:07:48.105Z,-5.98
2023-02-05T01:13:11.061Z,-6.11
2023-02-05T01:18:33.450Z,-6.09
2023-02-05T01:23:57.056Z,-6.16
2023-02-05T01:29:19.409Z,-6.19
2023-02-05T01:34:42.168Z,-6.19
2023-02-05T01:40:04.525Z,-6.14
2023-02-05T01:46:08.105Z,-6.08
2023-02-05T01:51:33.908Z,-6.21
2023-02-05T01:57:10.667Z,-6.26
2023-02-05T02:02:33.422Z,-6.35
2023-02-05T02:07:56.153Z,-6.38
2023-02-05T02:13:20.101Z,-6.60
2023-02-05T02:18:44.335Z,-7.03
2023-02-05T02:25:04.997Z,-7.09
2023-02-05T02:30:32.557Z,-6.54
2023-02-05T02:36:15.150Z,-6.36
2023-02-05T02:41:48.096Z,-6.40
2023-02-05T02:47:15.864Z,-6.39
2023-02-05T02:52:41.476Z,-6.47
2023-02-05T02:58:05.740Z,-6.56
2023-02-05T03:03:31.347Z,-6.54
2023-02-05T03:09:28.201Z,-6.70
2023-02-05T03:14:51.317Z,-6.73
2023-02-05T03:20:37.634Z,-6.77
2023-02-05T03:26:01.017Z,-6.78
2023-02-05T03:31:34.630Z,-6.84
2023-02-05T03:37:13.867Z,-6.95
2023-02-05T03:42:53.427Z,-7.05
2023-02-05T03:48:35.710Z,-7.29
2023-02-05T03:54:03.006Z,-7.63
2023-02-05T03:59:27.395Z,-7.92
2023-02-05T04:04:50.475Z,-8.22
2023-02-05T04:10:13.062Z,-8.44
2023-02-05T04:15:36.324Z,-8.45
2023-02-05T04:21:00.924Z,-8.45
2023-02-05T04:26:23.292Z,-8.46
2023-02-05T04:31:46.263Z,-8.81
2023-02-05T04:37:09.113Z,-8.90
2023-02-05T04:42:31.554Z,-8.66
2023-02-05T04:47:54.245Z,-8.49
2023-02-05T04:53:16.632Z,-8.23
2023-02-05T04:58:39.347Z,-8.17
2023-02-05T05:04:02.444Z,-8.31
2023-02-05T05:09:25.494Z,-8.01
2023-02-05T05:14:47.730Z,-7.93
2023-02-05T05:20:10.390Z,-7.97
2023-02-05T05:25:33.632Z,-7.97
2023-02-05T05:31:00.320Z,-8.02
2023-02-05T05:36:23.118Z,-8.09
2023-02-05T05:42:03.155Z,-8.07
2023-02-05T05:47:26.283Z,-8.10
2023-02-05T05:52:49.208Z,-8.25
2023-02-05T05:58:11.636Z,-8.38
2023-02-05T06:03:34.355Z,-8.61
2023-02-05T06:08:56.907Z,-8.24
2023-02-05T06:14:19.229Z,-8.40
2023-02-05T06:19:41.906Z,-8.31
2023-02-05T06:25:05.088Z,-7.91
2023-02-05T06:30:28.533Z,-7.61
2023-02-05T06:35:51.912Z,-7.46
2023-02-05T06:41:14.345Z,-7.51
2023-02-05T06:46:36.716Z,-7.56
2023-02-05T06:51:59.120Z,-7.53
2023-02-05T06:57:21.435Z,-7.60
2023-02-05T07:02:43.859Z,-7.74
2023-02-05T07:08:07.219Z,-7.73
2023-02-05T07:13:30.018Z,-7.69
2023-02-05T07:18:53.467Z,-7.89
2023-02-05T07:24:15.829Z,-8.08
2023-02-05T07:29:38.083Z,-8.38
2023-02-05T07:35:00.637Z,-8.37
2023-02-05T07:40:23.435Z,-8.26
2023-02-05T07:45:45.900Z,-8.20
2023-02-05T07:51:08.210Z,-8.04
2023-02-05T07:56:31.626Z,-7.96
2023-02-05T08:01:53.950Z,-7.84
2023-02-05T08:07:18.026Z,-7.67
2023-02-05T08:12:40.275Z,-7.42
2023-02-05T08:18:02.627Z,-7.16
2023-02-05T08:23:24.998Z,-6.97
2023-02-05T08:28:47.859Z,-6.80
2023-02-05T08:34:10.117Z,-6.35
2023-02-05T08:39:32.465Z,-6.00
2023-02-05T08:44:56.900Z,-5.55
2023-02-05T08:50:19.654Z,-5.07
2023-02-05T08:55:41.951Z,-4.61
2023-02-05T09:01:08.961Z,-4.33
2023-02-05T09:06:33.286Z,-4.12
2023-02-05T09:11:55.610Z,-4.08
2023-02-05T09:17:19.460Z,-3.79
2023-02-05T09:22:41.670Z,-3.87
2023-02-05T09:28:04.803Z,-3.89
2023-02-05T09:33:27.826Z,-3.59
2023-02-05T09:38:50.112Z,-3.22
2023-02-05T09:44:50.664Z,-3.07
2023-02-05T09:50:33.739Z,-2.75
2023-02-05T09:55:57.611Z,-2.26
2023-02-05T10:01:30.242Z,-2.10
2023-02-05T10:07:25.638Z,-1.83
2023-02-05T10:13:08.444Z,-1.58
2023-02-05T10:18:47.353Z,-1.33
2023-02-05T10:24:32.883Z,-1.52
2023-02-05T10:30:15.218Z,-1.25
2023-02-05T10:35:48.951Z,-0.70
2023-02-05T10:41:36.827Z,-0.37
2023-02-05T10:47:04.009Z,-0.81
2023-02-05T10:52:28.946Z,-0.91
2023-02-05T10:57:53.741Z,-0.54
2023-02-05T11:03:17.620Z,-0.39
2023-02-05T11:08:57.051Z,-0.34
2023-02-05T11:14:29.495Z,-0.33
2023-02-05T11:20:02.494Z,-0.39
2023-02-05T11:25:36.738Z,-0.20
2023-02-05T11:30:59.943Z,0.26
2023-02-05T11:36:29.559Z,0.20
2023-02-05T11:41:57.054Z,0.18
2023-02-05T11:47:23.672Z,0.47
2023-02-05T11:52:49.652Z,0.23
2023-02-05T11:58:37.117Z,0.11
2023-02-05T12:04:07.950Z,0.07
2023-02-05T12:09:36.074Z,0.05
2023-02-05T12:15:28.846Z,0.14
2023-02-05T12:21:17.958Z,0.10
2023-02-05T12:27:07.165Z,0.91
2023-02-05T12:32:50.137Z,0.46
2023-02-05T12:38:46.146Z,-0.14
2023-02-05T12:44:21.979Z,-0.28
2023-02-05T12:50:13.124Z,-0.79
2023-02-05T12:55:41.830Z,-0.53
2023-02-05T13:01:09.603Z,-0.46
2023-02-05T13:06:37.025Z,0.10
2023-02-05T13:12:07.703Z,-0.09
2023-02-05T13:17:35.404Z,0.37
2023-02-05T13:23:20.366Z,-0.03
2023-02-05T13:28:53.692Z,-0.02
2023-02-05T13:34:20.314Z,-0.18
2023-02-05T13:40:26.742Z,-0.26
2023-02-05T13:46:26.027Z,-0.50
2023-02-05T13:52:20.934Z,-0.56
2023-02-05T13:58:23.068Z,-0.59
2023-02-05T14:03:54.330Z,-0.52
2023-02-05T14:09:28.378Z,-0.63
2023-02-05T14:14:56.207Z,-0.76
2023-02-05T14:20:43.441Z,-0.92
2023-02-05T14:26:18.714Z,-0.99
2023-02-05T14:31:51.897Z,-1.05
2023-02-05T14:37:42.328Z,-1.01
2023-02-05T14:43:10.729Z,-1.21
2023-02-05T14:48:49.045Z,-1.30
2023-02-05T14:54:16.244Z,-1.40
2023-02-05T15:00:07.098Z,-1.52
2023-02-05T15:05:55.730Z,-1.62
2023-02-05T15:11:35.870Z,-1.75
2023-02-05T15:17:16.625Z,-1.85
2023-02-05T15:22:53.329Z,-2.00
2023-02-05T15:28:22.974Z,-2.16
2023-02-05T15:34:16.150Z,-2.37
2023-02-05T15:39:58.641Z,-2.61
2023-02-05T15:45:41.406Z,-2.80
2023-02-05T15:51:11.550Z,-2.93
2023-02-05T15:56:43.955Z,-3.15
2023-02-05T16:02:25.297Z,-3.48
2023-02-05T16:13:29.373Z,-4.01
2023-02-05T16:19:05.479Z,-4.32
2023-02-05T16:24:35.708Z,-4.35
2023-02-05T16:30:06.313Z,-4.55
2023-02-05T16:35:42.658Z,-4.70
2023-02-05T16:41:10.165Z,-4.91
2023-02-05T16:46:39.168Z,-4.99
2023-02-05T16:52:07.211Z,-4.78
2023-02-05T16:57:41.209Z,-4.98
2023-02-05T17:03:09.863Z,-5.11
2023-02-05T17:08:38.591Z,-5.21
2023-02-05T17:14:03.684Z,-5.26
2023-02-05T17:19:37.218Z,-5.24
2023-02-05T17:25:02.543Z,-5.23
2023-02-05T17:30:28.520Z,-5.34
2023-02-05T17:35:50.853Z,-5.51
2023-02-05T17:41:30.600Z,-5.39
2023-02-05T17:46:47.142Z,-5.35
2023-02-05T17:52:09.369Z,-5.45
2023-02-05T17:57:36.929Z,-5.42
2023-02-05T18:02:59.562Z,-5.31
2023-02-05T18:08:25.048Z,-5.12
2023-02-05T18:13:47.972Z,-5.06
2023-02-05T18:19:10.961Z,-4.74
2023-02-05T18:24:35.395Z,-4.56
2023-02-05T18:29:58.293Z,-4.49
2023-02-05T18:35:21.540Z,-4.40
2023-02-05T18:40:44.109Z,-4.30
2023-02-05T18:46:08.492Z,-4.30
2023-02-05T18:51:33.956Z,-4.27
2023-02-05T18:56:57.483Z,-4.40
2023-02-05T19:02:20.276Z,-4.41
2023-02-05T19:07:44.252Z,-4.42
2023-02-05T19:13:07.327Z,-4.47
2023-02-05T19:18:31.470Z,-4.70
2023-02-05T19:23:57.941Z,-4.95
2023-02-05T19:29:24.629Z,-5.03
2023-02-05T19:34:47.714Z,-5.08
2023-02-05T19:40:12.406Z,-5.22
2023-02-05T19:45:35.182Z,-5.32
2023-02-05T19:50:57.913Z,-5.17
2023-02-05T19:56:24.538Z,-5.48
2023-02-05T20:01:50.188Z,-5.64
2023-02-05T20:07:18.886Z,-5.74
2023-02-05T20:12:41.992Z,-5.73
2023-02-05T20:18:04.363Z,-5.47
2023-02-05T20:23:26.600Z,-5.30
2023-02-05T20:29:03.207Z,-5.65
2023-02-05T20:34:41.815Z,-5.88
2023-02-05T20:40:05.582Z,-6.18
2023-02-05T20:45:28.381Z,-6.33
2023-02-05T20:50:50.638Z,-6.32
2023-02-05T20:56:23.193Z,-6.48
2023-02-05T21:01:48.288Z,-6.44
2023-02-05T21:07:10.692Z,-6.40
2023-02-05T21:12:34.211Z,-6.57
2023-02-05T21:17:56.981Z,-6.71
2023-02-05T21:23:19.407Z,-6.72
2023-02-05T21:28:42.260Z,-6.68
2023-02-05T21:34:04.619Z,-6.51
2023-02-05T21:39:27.014Z,-6.29
2023-02-05T21:44:51.242Z,-6.25
2023-02-05T21:50:14.498Z,-6.20
2023-02-05T21:55:37.031Z,-6.24
2023-02-05T22:00:59.457Z,-6.20
2023-02-05T22:06:22.905Z,-6.18
2023-02-05T22:11:46.568Z,-6.23
2023-02-05T22:17:09.038Z,-6.22
2023-02-05T22:22:31.383Z,-6.20
2023-02-05T22:27:53.608Z,-6.20
2023-02-05T22:33:16.021Z,-6.27
2023-02-05T22:38:39.710Z,-6.31
2023-02-05T22:44:04.153Z,-6.28
2023-02-05T22:49:26.767Z,-6.27
2023-02-05T22:54:48.986Z,-6.41
2023-02-05T23:00:11.310Z,-6.42
2023-02-05T23:05:36.541Z,-6.51
2023-02-05T23:10:59.726Z,-6.57
2023-02-05T23:16:32.136Z,-6.59
2023-02-05T23:21:55.887Z,-6.63
2023-02-05T23:27:19.256Z,-6.58
2023-02-05T23:32:41.499Z,-6.61
2023-02-05T23:38:03.719Z,-6.78
2023-02-05T23:43:26.002Z,-6.79
2023-02-05T23:48:48.747Z,-6.75
2023-02-05T23:54:11.407Z,-6.75
2023-02-05T23:59:34.534Z,-6.82
